Terminal Aerodrome Forecast
Issued by NWS Binghamton, NY

Home | Current Version | Previous Version | Text Only | Print | Product List | Glossary On
Versions: 1 2 3 4 5 6 7 8 9 10 11 12 13 14 15 16 17
272
FTUS41 KBGM 241742
TAFBGM
TAF
KBGM 241742Z 2418/2518 20010KT P6SM SCT015 OVC025
      TEMPO 2418/2420 BKN008
     FM242200 22010KT P6SM BKN035
     FM250400 33005KT P6SM OVC015=

USA.gov is the U.S. government's official web portal to all federal, state and local government web resources and services.